Time;durP1;ratioP1;P1;durP2;ratioP2;P2;SDS_P1;SDS_P2;PMS_P1;PMS_P2;Temp;Humidity;BMP_temperature;BMP_pressure;BME280_temperature;BME280_humidity;BME280_pressure;Samples;Min_cycle;Max_cycle;Signal;HPM_P1;HPM_P2
2023/12/22 00:02:23;;;;;;;;;;;;;;;7.50;76.65;97270.84;4357521;32;34737;-95
2023/12/22 00:04:52;;;;;;;;;;;;;;;7.44;77.07;97271.06;4359423;32;35118;-91
2023/12/22 00:07:30;;;;;;;;;;;;;;;7.45;77.34;97258.13;4352335;32;34031;-93
2023/12/22 00:10:04;;;;;;;;;;;;;;;7.43;77.88;97274.56;4355202;32;32937;-95
2023/12/22 00:12:32;;;;;;;;;;;;;;;7.62;77.35;97282.41;4352853;32;34273;-93
2023/12/22 00:15:01;;;;;;;;;;;;;;;7.67;77.04;97277.91;4340193;32;33860;-94
2023/12/22 00:17:30;;;;;;;;;;;;;;;7.66;77.01;97289.97;4361034;32;33608;-96
2023/12/22 00:20:03;;;;;;;;;;;;;;;7.65;77.26;97293.44;4362315;32;33545;-92
2023/12/22 00:22:32;;;;;;;;;;;;;;;7.71;77.12;97289.78;4363569;32;34539;-92
2023/12/22 00:25:04;;;;;;;;;;;;;;;7.47;78.48;97283.84;4351314;32;33656;-91
2023/12/22 00:27:33;;;;;;;;;;;;;;;7.52;78.71;97297.41;4377636;32;33594;-92
2023/12/22 00:30:01;;;;;;;;;;;;;;;7.40;79.02;97300.47;4371867;32;33604;-90
2023/12/22 00:32:33;;;;;;;;;;;;;;;7.61;78.36;97317.69;4368536;32;34468;-92
2023/12/22 00:35:04;;;;;;;;;;;;;;;7.38;79.86;97325.47;4348483;32;32823;-92
2023/12/22 00:37:35;;;;;;;;;;;;;;;7.14;81.71;97330.66;4356054;32;34904;-91
2023/12/22 00:40:10;;;;;;;;;;;;;;;7.08;82.20;97330.91;4367853;32;33158;-92
2023/12/22 00:42:38;;;;;;;;;;;;;;;7.37;81.58;97327.22;4373190;32;34275;-93
2023/12/22 00:45:11;;;;;;;;;;;;;;;7.31;81.68;97317.13;4370461;32;34736;-91
2023/12/22 00:47:39;;;;;;;;;;;;;;;7.22;82.57;97299.41;4350257;32;33857;-92
2023/12/22 00:50:12;;;;;;;;;;;;;;;7.12;83.00;97311.81;4361210;32;33264;-91
2023/12/22 00:52:41;;;;;;;;;;;;;;;7.10;83.34;97321.34;4361992;32;34464;-92
2023/12/22 00:55:16;;;;;;;;;;;;;;;7.10;83.85;97305.03;4356021;32;34552;-91
2023/12/22 00:57:46;;;;;;;;;;;;;;;7.08;83.64;97333.47;4358288;32;33589;-91
2023/12/22 01:00:34;;;;;;;;;;;;;;;6.96;85.05;97350.22;4355356;32;34191;-92
2023/12/22 01:03:05;;;;;;;;;;;;;;;7.05;84.59;97380.84;4356539;32;33716;-93
2023/12/22 01:05:34;;;;;;;;;;;;;;;7.23;83.64;97350.94;4359915;32;32972;-92
2023/12/22 01:08:04;;;;;;;;;;;;;;;7.12;84.05;97306.66;4354248;32;33594;-93
2023/12/22 01:10:32;;;;;;;;;;;;;;;7.27;83.58;97287.19;4359614;32;33409;-94
2023/12/22 01:13:04;;;;;;;;;;;;;;;7.18;83.18;97288.41;4355332;32;33564;-94
2023/12/22 01:15:32;;;;;;;;;;;;;;;7.44;82.18;97281.38;4360294;32;34515;-92
2023/12/22 01:18:01;;;;;;;;;;;;;;;7.47;81.71;97301.91;4355734;32;34558;-92
2023/12/22 01:20:30;;;;;;;;;;;;;;;7.66;80.69;97325.25;4360135;32;32764;-93
2023/12/22 01:22:58;;;;;;;;;;;;;;;7.70;80.30;97331.97;4341757;32;32447;-91
2023/12/22 01:25:28;;;;;;;;;;;;;;;7.64;80.25;97319.31;4362378;32;33850;-93
2023/12/22 01:27:56;;;;;;;;;;;;;;;7.80;79.25;97320.38;4359333;32;33740;-92
2023/12/22 01:30:28;;;;;;;;;;;;;;;7.73;79.62;97328.41;4345073;32;32856;-93
2023/12/22 01:32:57;;;;;;;;;;;;;;;7.55;80.51;97322.25;4356578;32;33817;-93
2023/12/22 01:35:29;;;;;;;;;;;;;;;7.37;81.05;97326.37;4356650;32;34364;-92
2023/12/22 01:37:57;;;;;;;;;;;;;;;7.43;80.69;97319.25;4353335;32;34540;-92
2023/12/22 01:40:27;;;;;;;;;;;;;;;7.58;79.64;97325.53;4342356;33;33483;-96
2023/12/22 01:42:56;;;;;;;;;;;;;;;7.60;79.22;97334.06;4341390;33;33772;-92
2023/12/22 01:45:27;;;;;;;;;;;;;;;7.20;80.55;97327.88;4341536;33;34307;-92
2023/12/22 01:47:58;;;;;;;;;;;;;;;7.41;79.18;97321.03;4349203;32;33565;-93
2023/12/22 01:50:28;;;;;;;;;;;;;;;7.10;80.28;97326.50;4357521;32;34809;-93
2023/12/22 01:52:57;;;;;;;;;;;;;;;7.10;80.17;97336.81;4355935;32;33632;-94
2023/12/22 01:55:26;;;;;;;;;;;;;;;7.10;79.73;97348.87;4355971;32;33811;-92
2023/12/22 01:57:58;;;;;;;;;;;;;;;7.03;80.20;97325.91;4359756;32;35361;-93
2023/12/22 02:00:32;;;;;;;;;;;;;;;6.87;80.36;97324.78;4366055;32;33085;-94
2023/12/22 02:04:01;;;;;;;;;;;;;;;7.09;79.32;97318.84;4348581;32;34001;-95
2023/12/22 02:07:08;;;;;;;;;;;;;;;7.00;79.48;97295.06;4344997;32;34001;-96
2023/12/22 02:09:56;;;;;;;;;;;;;;;7.10;79.35;97269.78;4349388;32;34208;-95
2023/12/22 02:13:20;;;;;;;;;;;;;;;7.19;78.87;97277.19;4356846;32;32844;-96
2023/12/22 02:16:48;;;;;;;;;;;;;;;7.11;78.60;97250.03;4349165;32;34160;-96
2023/12/22 02:20:21;;;;;;;;;;;;;;;7.32;78.45;97268.97;4359180;32;34789;-95
2023/12/22 02:23:16;;;;;;;;;;;;;;;7.20;78.39;97265.97;4349569;32;34685;-95
2023/12/22 02:30:48;;;;;;;;;;;;;;;7.33;77.72;97275.81;4346975;32;33661;-93
2023/12/22 02:34:42;;;;;;;;;;;;;;;7.03;78.71;97225.38;4360007;32;33897;-94
2023/12/22 04:28:33;;;;;;;;;;;;;;;6.25;65.42;97390.44;4244743;33;35180;-95
2023/12/22 04:31:44;;;;;;;;;;;;;;;6.29;65.92;97384.31;4258393;33;33605;-96
2023/12/22 04:34:32;;;;;;;;;;;;;;;6.51;65.32;97389.59;4312389;33;32978;-95
2023/12/22 04:38:02;;;;;;;;;;;;;;;6.65;65.73;97383.97;4319174;33;34409;-96
2023/12/22 04:40:54;;;;;;;;;;;;;;;6.73;64.83;97381.13;4315864;33;32592;-95
2023/12/22 04:44:27;;;;;;;;;;;;;;;6.51;65.29;97374.13;4329356;33;34034;-95
2023/12/22 04:47:53;;;;;;;;;;;;;;;6.37;65.53;97386.63;4313355;33;33444;-96
2023/12/22 04:50:43;;;;;;;;;;;;;;;6.27;65.24;97391.25;4370132;32;33922;-96
2023/12/22 04:53:33;;;;;;;;;;;;;;;6.08;65.86;97388.41;4349140;32;33254;-95
2023/12/22 04:56:29;;;;;;;;;;;;;;;6.09;65.86;97396.97;4372596;32;34004;-95
2023/12/22 04:59:35;;;;;;;;;;;;;;;5.92;66.80;97400.91;4360024;32;32843;-95
2023/12/22 05:02:46;;;;;;;;;;;;;;;6.18;65.95;97404.41;4360043;32;33507;-95
2023/12/22 05:05:41;;;;;;;;;;;;;;;6.11;66.24;97406.38;4375714;32;32957;-95
2023/12/22 05:08:30;;;;;;;;;;;;;;;6.43;65.27;97413.91;4360713;32;33375;-96
2023/12/22 05:11:58;;;;;;;;;;;;;;;6.24;65.05;97413.69;4362395;32;32743;-95
2023/12/22 05:14:30;;;;;;;;;;;;;;;6.32;65.01;97419.41;4359286;32;34742;-94
2023/12/22 05:17:43;;;;;;;;;;;;;;;6.22;65.65;97429.19;4361897;32;31767;-95
2023/12/22 05:20:19;;;;;;;;;;;;;;;6.28;65.27;97447.00;4364143;32;33877;-95
2023/12/22 05:23:09;;;;;;;;;;;;;;;6.32;65.40;97456.31;4379455;32;33573;-95
2023/12/22 05:26:37;;;;;;;;;;;;;;;6.16;65.68;97458.53;4364286;32;32791;-96
2023/12/22 05:29:46;;;;;;;;;;;;;;;6.05;65.81;97455.44;4363882;32;34465;-95
2023/12/22 05:33:37;;;;;;;;;;;;;;;5.88;66.00;97452.53;4359123;32;32576;-95
2023/12/22 05:36:45;;;;;;;;;;;;;;;6.10;64.60;97468.19;4359583;32;32641;-95
2023/12/22 05:42:29;;;;;;;;;;;;;;;5.63;65.14;97463.53;4351986;32;33001;-95
2023/12/22 05:45:18;;;;;;;;;;;;;;;5.94;63.99;97471.22;4361709;32;33125;-96
2023/12/22 05:48:57;;;;;;;;;;;;;;;5.84;63.49;97468.94;4331722;33;34157;-94
2023/12/22 05:52:06;;;;;;;;;;;;;;;5.79;63.63;97463.91;4345140;33;34191;-94
2023/12/22 05:54:55;;;;;;;;;;;;;;;5.60;62.95;97476.47;4332422;33;32626;-95
2023/12/22 05:57:48;;;;;;;;;;;;;;;5.50;62.44;97485.34;4339457;33;33635;-95
2023/12/22 06:00:57;;;;;;;;;;;;;;;5.69;62.27;97496.78;4334634;32;32463;-95
2023/12/22 06:04:47;;;;;;;;;;;;;;;5.73;61.52;97500.13;4355743;32;33581;-95
2023/12/22 06:07:58;;;;;;;;;;;;;;;5.46;61.85;97505.19;4362369;32;33216;-95
2023/12/22 06:11:28;;;;;;;;;;;;;;;5.64;59.78;97496.09;4347762;32;33199;-94
2023/12/22 06:13:59;;;;;;;;;;;;;;;5.46;60.59;97510.31;4344796;32;33316;-95
2023/12/22 06:17:14;;;;;;;;;;;;;;;5.41;60.76;97519.84;4353168;32;35474;-95
2023/12/22 06:20:26;;;;;;;;;;;;;;;5.65;60.32;97527.78;4343155;33;33356;-95
2023/12/22 06:23:30;;;;;;;;;;;;;;;5.83;59.54;97547.03;4356456;32;34544;-95
2023/12/22 06:26:37;;;;;;;;;;;;;;;5.64;59.26;97547.53;4368104;32;33040;-96
2023/12/22 06:29:35;;;;;;;;;;;;;;;5.66;58.99;97561.19;4357172;32;33147;-94
2023/12/22 06:32:42;;;;;;;;;;;;;;;5.59;59.12;97564.81;4356033;32;31734;-95
2023/12/22 06:36:23;;;;;;;;;;;;;;;5.60;59.20;97575.94;4357315;32;34273;-94
2023/12/22 06:38:53;;;;;;;;;;;;;;;5.67;58.43;97567.19;4357038;32;33858;-94
2023/12/22 06:41:44;;;;;;;;;;;;;;;5.56;58.64;97557.19;4358869;32;34191;-94
2023/12/22 06:44:56;;;;;;;;;;;;;;;5.55;58.69;97566.62;4352869;32;34005;-95
2023/12/22 06:47:26;;;;;;;;;;;;;;;5.54;58.23;97561.53;4357266;32;33659;-95
2023/12/22 06:50:05;;;;;;;;;;;;;;;5.67;58.62;97559.47;4361596;32;34424;-94
2023/12/22 06:54:00;;;;;;;;;;;;;;;5.53;58.30;97549.53;4341830;32;33193;-94
2023/12/22 06:57:08;;;;;;;;;;;;;;;5.78;57.33;97560.00;4357014;32;32627;-94
2023/12/22 07:00:24;;;;;;;;;;;;;;;5.86;56.38;97568.34;4346007;32;32577;-95
2023/12/22 07:03:14;;;;;;;;;;;;;;;5.83;56.44;97567.59;4342910;32;33557;-95
2023/12/22 07:05:50;;;;;;;;;;;;;;;5.54;56.48;97567.50;4335810;32;33076;-94
2023/12/22 07:08:20;;;;;;;;;;;;;;;5.47;56.96;97575.44;4356089;32;33042;-94
2023/12/22 07:11:26;;;;;;;;;;;;;;;5.78;56.07;97570.31;4340255;33;33036;-94
2023/12/22 07:14:06;;;;;;;;;;;;;;;5.73;55.37;97591.00;4354291;32;34424;-95
2023/12/22 07:16:47;;;;;;;;;;;;;;;5.70;55.35;97587.66;4341617;32;32476;-90
2023/12/22 07:19:19;;;;;;;;;;;;;;;5.51;55.93;97588.19;4356735;32;33727;-89
2023/12/22 07:21:49;;;;;;;;;;;;;;;5.70;55.60;97579.94;4360051;32;33965;-89
2023/12/22 07:24:19;;;;;;;;;;;;;;;5.88;55.57;97584.59;4353997;32;34874;-90
2023/12/22 07:26:50;;;;;;;;;;;;;;;5.97;55.04;97584.37;4350587;32;34233;-90
2023/12/22 07:29:20;;;;;;;;;;;;;;;6.25;54.36;97568.09;4359861;32;33203;-89
2023/12/22 07:31:52;;;;;;;;;;;;;;;6.21;54.67;97563.97;4358759;32;34059;-90
2023/12/22 07:34:22;;;;;;;;;;;;;;;6.23;54.89;97564.72;4354563;32;35085;-88
2023/12/22 07:36:52;;;;;;;;;;;;;;;6.29;54.83;97562.00;4354355;32;33958;-88
2023/12/22 07:39:34;;;;;;;;;;;;;;;6.48;54.40;97561.44;4356428;32;33249;-89
2023/12/22 07:42:09;;;;;;;;;;;;;;;6.35;54.75;97563.53;4354176;32;34076;-91
2023/12/22 07:44:37;;;;;;;;;;;;;;;6.25;55.31;97564.69;4360219;32;34961;-88
2023/12/22 07:47:11;;;;;;;;;;;;;;;6.30;55.79;97584.25;4354601;32;33499;-88
2023/12/22 07:49:40;;;;;;;;;;;;;;;6.29;56.41;97571.44;4353191;32;32550;-89
2023/12/22 07:52:11;;;;;;;;;;;;;;;6.46;56.42;97581.25;4356665;32;33631;-88
2023/12/22 07:54:39;;;;;;;;;;;;;;;6.47;56.97;97583.75;4354704;32;34951;-88
2023/12/22 07:57:13;;;;;;;;;;;;;;;6.43;57.16;97576.16;4355818;32;37485;-88
2023/12/22 07:59:41;;;;;;;;;;;;;;;6.30;58.47;97573.97;4356530;32;32628;-88
2023/12/22 08:02:11;;;;;;;;;;;;;;;6.35;57.81;97591.84;4369228;32;33660;-88
2023/12/22 08:04:41;;;;;;;;;;;;;;;6.21;58.46;97600.00;4371350;32;34088;-90
2023/12/22 08:07:11;;;;;;;;;;;;;;;6.13;58.24;97605.34;4376838;32;34483;-89
2023/12/22 08:09:40;;;;;;;;;;;;;;;6.39;57.45;97606.34;4371320;32;32392;-90
2023/12/22 08:12:08;;;;;;;;;;;;;;;6.34;58.10;97603.88;4371494;32;34876;-89
2023/12/22 08:14:45;;;;;;;;;;;;;;;6.46;58.17;97594.97;4371427;32;33758;-88
2023/12/22 08:17:18;;;;;;;;;;;;;;;6.59;57.73;97590.25;4372005;32;34516;-88
2023/12/22 08:19:47;;;;;;;;;;;;;;;6.45;57.96;97576.97;4376383;32;34031;-88
2023/12/22 08:22:18;;;;;;;;;;;;;;;6.59;57.38;97580.78;4372068;32;33960;-88
2023/12/22 08:24:47;;;;;;;;;;;;;;;6.64;57.21;97583.22;4371305;32;34828;-90
2023/12/22 08:27:16;;;;;;;;;;;;;;;6.77;57.39;97586.28;4367717;32;33542;-89
2023/12/22 08:29:47;;;;;;;;;;;;;;;6.82;57.29;97585.25;4375914;32;32698;-89
2023/12/22 08:32:17;;;;;;;;;;;;;;;6.84;57.12;97580.03;4376364;32;34596;-89
2023/12/22 08:34:49;;;;;;;;;;;;;;;6.97;56.95;97589.06;4371204;32;34234;-90
2023/12/22 08:37:24;;;;;;;;;;;;;;;6.90;57.17;97587.56;4371187;32;33765;-88
2023/12/22 08:39:53;;;;;;;;;;;;;;;6.88;56.80;97593.66;4373801;32;33366;-88
2023/12/22 08:42:22;;;;;;;;;;;;;;;6.80;57.42;97602.47;4377261;32;33452;-87
2023/12/22 08:44:52;;;;;;;;;;;;;;;6.59;57.02;97598.00;4371435;32;34107;-90
2023/12/22 08:47:21;;;;;;;;;;;;;;;6.78;57.39;97606.00;4371469;32;34287;-87
2023/12/22 08:49:50;;;;;;;;;;;;;;;6.84;56.66;97598.94;4358980;32;32645;-90
2023/12/22 08:52:18;;;;;;;;;;;;;;;6.77;56.73;97605.16;4377519;32;34349;-89
2023/12/22 08:54:54;;;;;;;;;;;;;;;6.74;56.82;97620.72;4371159;32;34194;-88
2023/12/22 08:57:23;;;;;;;;;;;;;;;6.80;57.15;97620.53;4372624;32;33829;-90
2023/12/22 09:00:00;;;;;;;;;;;;;;;6.93;56.75;97615.81;4376474;32;33332;-89
2023/12/22 09:02:29;;;;;;;;;;;;;;;6.86;56.47;97634.09;4372378;32;34329;-89
2023/12/22 09:04:57;;;;;;;;;;;;;;;7.13;56.76;97633.25;4378166;32;33710;-90
2023/12/22 09:07:27;;;;;;;;;;;;;;;7.20;56.29;97632.16;4369634;32;34190;-90
2023/12/22 09:09:58;;;;;;;;;;;;;;;7.01;56.48;97620.75;4374713;32;33309;-87
2023/12/22 09:12:31;;;;;;;;;;;;;;;7.19;55.42;97624.47;4371593;32;34341;-86
2023/12/22 09:15:01;;;;;;;;;;;;;;;7.14;54.88;97634.09;4375336;32;34246;-91
2023/12/22 09:17:32;;;;;;;;;;;;;;;7.00;55.46;97614.72;4376674;32;34634;-88
2023/12/22 09:20:00;;;;;;;;;;;;;;;7.39;54.80;97626.38;4373368;32;32890;-87
2023/12/22 09:22:29;;;;;;;;;;;;;;;7.22;54.32;97614.91;4370635;32;33787;-86
2023/12/22 09:25:04;;;;;;;;;;;;;;;7.20;54.64;97620.97;4377971;32;33701;-87
2023/12/22 09:27:32;;;;;;;;;;;;;;;7.45;53.73;97614.13;4375316;32;33057;-88
2023/12/22 09:30:06;;;;;;;;;;;;;;;7.31;54.20;97611.16;4369508;32;33047;-87
2023/12/22 09:32:35;;;;;;;;;;;;;;;7.33;54.68;97604.22;4372577;32;33723;-89
2023/12/22 09:35:05;;;;;;;;;;;;;;;7.09;54.01;97605.88;4369063;32;34231;-89
2023/12/22 09:37:33;;;;;;;;;;;;;;;7.25;55.09;97604.47;4369879;32;34499;-89
2023/12/22 09:40:11;;;;;;;;;;;;;;;7.47;54.06;97612.31;4375267;32;32652;-88
2023/12/22 09:42:40;;;;;;;;;;;;;;;7.64;53.30;97616.06;4371598;32;34091;-86
2023/12/22 09:45:10;;;;;;;;;;;;;;;7.50;53.55;97618.28;4370565;32;34660;-86
2023/12/22 09:47:41;;;;;;;;;;;;;;;7.44;54.11;97615.03;4370728;32;33717;-87
2023/12/22 09:50:10;;;;;;;;;;;;;;;7.50;54.16;97621.69;4376364;32;32537;-90
2023/12/22 09:52:45;;;;;;;;;;;;;;;7.36;53.96;97629.06;4375761;32;33363;-89
2023/12/22 09:55:13;;;;;;;;;;;;;;;7.34;54.17;97631.69;4370746;32;34879;-90
2023/12/22 09:57:42;;;;;;;;;;;;;;;7.34;54.71;97626.50;4371537;32;33700;-88
2023/12/22 10:00:14;;;;;;;;;;;;;;;7.50;54.38;97615.69;4373784;32;33308;-88
2023/12/22 10:02:45;;;;;;;;;;;;;;;7.57;54.70;97615.44;4373618;32;33074;-87
2023/12/22 10:05:14;;;;;;;;;;;;;;;7.49;54.83;97609.72;4368780;32;33734;-89
2023/12/22 10:07:43;;;;;;;;;;;;;;;7.41;55.04;97616.84;4351652;32;34268;-87
2023/12/22 10:10:15;;;;;;;;;;;;;;;7.56;54.99;97615.47;4375576;32;33241;-86
2023/12/22 10:12:45;;;;;;;;;;;;;;;7.60;54.54;97607.59;4374502;32;33441;-89
2023/12/22 10:15:16;;;;;;;;;;;;;;;7.35;55.22;97604.16;4368471;32;33943;-89
2023/12/22 10:17:52;;;;;;;;;;;;;;;7.68;54.04;97587.53;4368788;32;34856;-88
2023/12/22 10:20:21;;;;;;;;;;;;;;;7.48;54.39;97608.84;4369304;32;33005;-88
2023/12/22 10:22:53;;;;;;;;;;;;;;;7.76;55.02;97619.97;4381374;32;34816;-87
2023/12/22 10:25:22;;;;;;;;;;;;;;;7.78;54.71;97610.41;4373395;32;33596;-87
2023/12/22 10:27:53;;;;;;;;;;;;;;;7.79;54.16;97612.94;4356111;32;33657;-87
2023/12/22 10:30:24;;;;;;;;;;;;;;;7.46;54.58;97613.19;4364020;32;33978;-88
2023/12/22 10:32:53;;;;;;;;;;;;;;;7.73;54.93;97602.00;4372684;32;34102;-87
2023/12/22 10:35:22;;;;;;;;;;;;;;;7.77;53.48;97581.19;4377501;32;33692;-87
2023/12/22 10:37:57;;;;;;;;;;;;;;;7.75;53.54;97576.97;4378686;32;34715;-87
2023/12/22 10:40:29;;;;;;;;;;;;;;;8.08;53.55;97559.41;4382017;32;32673;-88
2023/12/22 10:42:58;;;;;;;;;;;;;;;8.05;52.18;97552.63;4383607;32;36134;-87
2023/12/22 10:45:29;;;;;;;;;;;;;;;7.67;53.84;97556.59;4374272;32;34556;-87
2023/12/22 10:47:59;;;;;;;;;;;;;;;7.58;53.09;97562.09;4373569;32;33810;-87
2023/12/22 10:50:28;;;;;;;;;;;;;;;7.71;53.47;97558.19;4377111;32;32976;-89
2023/12/22 10:52:56;;;;;;;;;;;;;;;7.77;53.60;97559.69;4366397;32;33543;-87
2023/12/22 10:55:28;;;;;;;;;;;;;;;7.43;53.10;97584.94;4365330;32;34027;-86
2023/12/22 10:57:58;;;;;;;;;;;;;;;7.25;54.07;97560.63;4370755;32;33856;-87
2023/12/22 11:00:30;;;;;;;;;;;;;;;7.30;54.38;97563.06;4373487;32;35698;-87
2023/12/22 11:03:01;;;;;;;;;;;;;;;7.41;53.89;97575.56;4369491;32;33818;-89
2023/12/22 11:05:30;;;;;;;;;;;;;;;7.32;54.42;97575.88;4368661;32;33974;-88
2023/12/22 11:08:01;;;;;;;;;;;;;;;7.41;53.77;97584.16;4355539;32;35130;-89
2023/12/22 11:10:32;;;;;;;;;;;;;;;7.47;53.78;97581.38;4360199;32;33057;-87
2023/12/22 11:13:01;;;;;;;;;;;;;;;7.55;53.99;97583.69;4357176;32;34726;-88
2023/12/22 11:15:34;;;;;;;;;;;;;;;7.49;54.00;97576.16;4355086;32;35030;-88
2023/12/22 11:18:06;;;;;;;;;;;;;;;7.36;53.58;97570.56;4354751;32;34356;-87
2023/12/22 11:20:34;;;;;;;;;;;;;;;7.42;53.43;97595.34;4356258;32;33020;-87
2023/12/22 11:23:04;;;;;;;;;;;;;;;7.70;53.50;97580.53;4360633;32;34039;-88
2023/12/22 11:25:36;;;;;;;;;;;;;;;7.66;53.15;97585.91;4355038;32;34333;-87
2023/12/22 11:28:07;;;;;;;;;;;;;;;7.55;53.45;97567.34;4355147;32;34218;-89
2023/12/22 11:30:38;;;;;;;;;;;;;;;7.75;53.27;97584.72;4355396;32;33606;-89
2023/12/22 11:33:07;;;;;;;;;;;;;;;7.80;52.51;97577.66;4362566;32;33584;-87
2023/12/22 11:35:38;;;;;;;;;;;;;;;7.51;53.04;97587.25;4355514;32;33650;-87
2023/12/22 11:38:07;;;;;;;;;;;;;;;7.46;53.07;97584.00;4360128;32;33621;-88
2023/12/22 11:40:40;;;;;;;;;;;;;;;7.73;52.06;97586.50;4365708;32;33575;-88
2023/12/22 11:43:12;;;;;;;;;;;;;;;7.74;51.46;97570.97;4355711;32;33649;-87
2023/12/22 11:45:43;;;;;;;;;;;;;;;7.95;51.27;97582.28;4360690;32;33451;-87
2023/12/22 11:48:12;;;;;;;;;;;;;;;8.06;49.64;97577.53;4356860;32;34376;-88
2023/12/22 11:50:44;;;;;;;;;;;;;;;7.93;50.28;97594.41;4361497;32;33042;-89
2023/12/22 11:53:17;;;;;;;;;;;;;;;7.80;50.88;97575.91;4357063;32;33603;-91
2023/12/22 11:56:02;;;;;;;;;;;;;;;8.09;50.85;97579.16;4363882;32;33921;-87
2023/12/22 11:58:34;;;;;;;;;;;;;;;7.96;51.16;97580.53;4363072;32;33852;-89
2023/12/22 12:01:10;;;;;;;;;;;;;;;8.18;50.60;97581.41;4363860;32;33418;-89
2023/12/22 12:03:42;;;;;;;;;;;;;;;8.09;51.31;97594.66;4357695;32;33575;-87
2023/12/22 12:06:26;;;;;;;;;;;;;;;8.10;50.60;97594.59;4355547;32;34024;-87
2023/12/22 12:08:55;;;;;;;;;;;;;;;7.81;51.45;97587.94;4356263;32;34038;-88
2023/12/22 12:11:27;;;;;;;;;;;;;;;7.95;51.85;97608.09;4364670;32;33316;-88
2023/12/22 12:13:59;;;;;;;;;;;;;;;7.92;51.73;97615.94;4355975;32;34036;-88
2023/12/22 12:16:32;;;;;;;;;;;;;;;8.04;51.04;97594.81;4339952;32;34135;-88
2023/12/22 12:19:00;;;;;;;;;;;;;;;7.83;51.44;97593.88;4357997;32;34990;-87
2023/12/22 12:21:29;;;;;;;;;;;;;;;7.96;51.78;97588.28;4360000;32;34050;-88
2023/12/22 12:23:57;;;;;;;;;;;;;;;7.77;51.34;97596.66;4360336;32;34382;-88
2023/12/22 12:29:00;;;;;;;;;;;;;;;7.79;51.42;97587.13;4367978;32;34389;-89
2023/12/22 12:31:38;;;;;;;;;;;;;;;7.78;51.36;97592.34;4367363;32;33722;-87
2023/12/22 12:34:17;;;;;;;;;;;;;;;7.68;51.25;97615.06;4360387;32;33200;-89
2023/12/22 12:36:46;;;;;;;;;;;;;;;7.48;52.17;97603.69;4355644;32;34847;-89
2023/12/22 12:39:16;;;;;;;;;;;;;;;7.76;51.38;97638.03;4356169;32;35034;-87
2023/12/22 12:41:45;;;;;;;;;;;;;;;7.57;52.29;97618.00;4359716;32;33659;-91
2023/12/22 12:44:14;;;;;;;;;;;;;;;7.48;53.05;97608.00;4355565;32;35924;-88
2023/12/22 12:46:47;;;;;;;;;;;;;;;7.56;53.28;97603.41;4361257;32;33560;-87
2023/12/22 12:49:15;;;;;;;;;;;;;;;7.36;53.98;97592.94;4348477;32;34579;-89
2023/12/22 12:51:45;;;;;;;;;;;;;;;7.63;53.92;97606.63;4352930;32;33410;-88
2023/12/22 12:54:18;;;;;;;;;;;;;;;7.55;54.90;97606.91;4355159;32;33864;-88
2023/12/22 12:56:47;;;;;;;;;;;;;;;7.19;57.59;97601.25;4359196;32;33542;-89
2023/12/22 12:59:20;;;;;;;;;;;;;;;6.62;59.88;97605.66;4358816;32;35019;-87
2023/12/22 13:01:51;;;;;;;;;;;;;;;6.57;60.21;97592.03;4366717;32;33528;-87
2023/12/22 13:04:22;;;;;;;;;;;;;;;6.56;58.17;97596.34;4370834;32;34822;-87
2023/12/22 13:06:51;;;;;;;;;;;;;;;6.61;59.87;97580.75;4371089;32;34257;-88
2023/12/22 13:09:20;;;;;;;;;;;;;;;6.55;59.32;97584.37;4376725;32;34685;-87
2023/12/22 13:11:50;;;;;;;;;;;;;;;6.91;59.29;97599.59;4371111;32;33064;-87
2023/12/22 13:14:26;;;;;;;;;;;;;;;7.14;57.72;97601.41;4358786;32;33142;-90
2023/12/22 13:16:56;;;;;;;;;;;;;;;6.98;55.92;97608.81;4362391;32;33341;-87
2023/12/22 13:19:28;;;;;;;;;;;;;;;7.08;56.29;97611.94;4374777;32;33872;-87
2023/12/22 13:21:57;;;;;;;;;;;;;;;7.24;55.60;97595.03;4374495;32;33022;-88
2023/12/22 13:24:29;;;;;;;;;;;;;;;7.40;54.75;97604.84;4348488;32;32575;-90
2023/12/22 13:27:02;;;;;;;;;;;;;;;7.31;54.52;97600.84;4369441;32;33920;-89
2023/12/22 13:29:44;;;;;;;;;;;;;;;7.30;54.49;97600.87;4371877;32;34684;-88
2023/12/22 13:32:19;;;;;;;;;;;;;;;7.41;53.47;97609.09;4373476;32;33463;-89
2023/12/22 13:34:52;;;;;;;;;;;;;;;7.51;52.74;97587.25;4362555;32;33110;-88
2023/12/22 13:37:27;;;;;;;;;;;;;;;7.58;52.84;97598.22;4357041;32;32828;-90
2023/12/22 13:39:57;;;;;;;;;;;;;;;7.81;51.99;97580.19;4356464;32;33601;-89
2023/12/22 13:42:25;;;;;;;;;;;;;;;8.31;51.43;97579.19;4370867;32;33677;-88
2023/12/22 13:44:54;;;;;;;;;;;;;;;7.94;51.18;97585.72;4376585;32;34722;-88
2023/12/22 13:47:24;;;;;;;;;;;;;;;7.89;51.03;97603.97;4370620;32;33889;-87
2023/12/22 13:49:58;;;;;;;;;;;;;;;7.55;51.82;97600.91;4371056;32;34028;-86
2023/12/22 13:52:28;;;;;;;;;;;;;;;7.43;52.22;97605.56;4370577;32;33476;-87
2023/12/22 13:55:02;;;;;;;;;;;;;;;7.46;52.59;97597.72;4369823;32;34342;-87
2023/12/22 13:57:30;;;;;;;;;;;;;;;7.37;53.17;97594.63;4375769;32;34718;-89
2023/12/22 13:59:59;;;;;;;;;;;;;;;7.43;52.97;97603.00;4370831;32;34585;-87
2023/12/22 14:02:32;;;;;;;;;;;;;;;7.33;53.32;97595.62;4372684;32;32849;-87
2023/12/22 14:05:05;;;;;;;;;;;;;;;7.12;53.67;97598.03;4370696;32;34497;-87
2023/12/22 14:07:33;;;;;;;;;;;;;;;7.27;53.81;97591.50;4375564;32;34771;-86
2023/12/22 14:10:05;;;;;;;;;;;;;;;7.18;55.17;97597.84;4373901;32;34152;-86
2023/12/22 14:12:34;;;;;;;;;;;;;;;7.00;56.29;97655.13;4374221;32;33783;-85
2023/12/22 14:15:06;;;;;;;;;;;;;;;6.38;63.31;97676.75;4368852;32;33538;-86
2023/12/22 14:17:36;;;;;;;;;;;;;;;5.46;68.38;97692.03;4370455;32;33594;-87
2023/12/22 14:20:09;;;;;;;;;;;;;;;5.08;71.28;97689.50;4374080;32;33509;-88
2023/12/22 14:22:39;;;;;;;;;;;;;;;4.94;72.59;97683.00;4367064;32;32984;-87
2023/12/22 14:25:09;;;;;;;;;;;;;;;5.02;72.74;97665.66;4356156;32;34028;-87
2023/12/22 14:27:37;;;;;;;;;;;;;;;5.01;73.67;97659.69;4360420;32;33682;-86
2023/12/22 14:30:12;;;;;;;;;;;;;;;4.79;74.72;97638.78;4358012;32;33531;-87
2023/12/22 14:32:42;;;;;;;;;;;;;;;5.05;74.62;97640.75;4359233;32;32860;-87
2023/12/22 14:35:13;;;;;;;;;;;;;;;5.17;74.39;97634.50;4358867;32;33074;-85
2023/12/22 14:37:43;;;;;;;;;;;;;;;5.19;74.30;97621.56;4367711;32;33657;-86
2023/12/22 14:40:15;;;;;;;;;;;;;;;5.20;73.23;97602.72;4367771;32;33829;-86
2023/12/22 14:42:43;;;;;;;;;;;;;;;5.11;73.31;97626.91;4372585;32;32971;-89
2023/12/22 14:45:14;;;;;;;;;;;;;;;5.27;72.58;97620.50;4368376;32;34549;-86
2023/12/22 14:47:44;;;;;;;;;;;;;;;5.21;71.92;97642.94;4368854;32;34617;-87
2023/12/22 14:50:17;;;;;;;;;;;;;;;5.31;70.96;97652.13;4374513;32;33715;-87
2023/12/22 14:52:45;;;;;;;;;;;;;;;5.07;71.92;97663.84;4362773;32;33616;-86
2023/12/22 14:55:16;;;;;;;;;;;;;;;5.06;72.02;97677.59;4372939;32;34613;-88
2023/12/22 14:57:45;;;;;;;;;;;;;;;5.14;71.71;97675.66;4366976;32;34486;-87
2023/12/22 15:00:14;;;;;;;;;;;;;;;5.11;71.59;97686.03;4370938;32;32961;-87
2023/12/22 15:02:47;;;;;;;;;;;;;;;5.26;71.39;97689.94;4351878;32;32737;-87
2023/12/22 15:05:17;;;;;;;;;;;;;;;4.99;70.79;97712.00;4359824;32;32976;-87
2023/12/22 15:07:51;;;;;;;;;;;;;;;5.13;69.78;97690.25;4354050;32;33765;-86
2023/12/22 15:10:23;;;;;;;;;;;;;;;5.03;69.51;97669.94;4349220;32;33311;-86
2023/12/22 15:12:51;;;;;;;;;;;;;;;5.19;69.47;97688.41;4355497;32;33367;-87
2023/12/22 15:15:21;;;;;;;;;;;;;;;5.23;69.24;97680.59;4355403;32;34355;-88
2023/12/22 15:17:51;;;;;;;;;;;;;;;5.22;68.57;97668.63;4360024;32;33172;-87
2023/12/22 15:20:25;;;;;;;;;;;;;;;5.40;67.82;97646.75;4355085;32;33241;-89
2023/12/22 15:22:53;;;;;;;;;;;;;;;5.30;68.26;97642.72;4352685;32;34015;-88
2023/12/22 15:25:26;;;;;;;;;;;;;;;5.32;68.37;97658.97;4346985;32;34430;-87
2023/12/22 15:27:54;;;;;;;;;;;;;;;5.34;68.33;97698.34;4358983;32;35038;-89
2023/12/22 15:30:30;;;;;;;;;;;;;;;5.35;68.44;97700.03;4367522;32;34153;-86
2023/12/22 15:33:00;;;;;;;;;;;;;;;5.35;68.57;97736.00;4364232;32;33403;-87
2023/12/22 15:35:40;;;;;;;;;;;;;;;5.17;68.87;97732.16;4354905;32;33794;-88
2023/12/22 15:38:11;;;;;;;;;;;;;;;5.44;68.19;97727.25;4355613;32;33344;-87
2023/12/22 15:40:40;;;;;;;;;;;;;;;5.57;67.78;97726.91;4344423;33;35062;-88
2023/12/22 15:43:12;;;;;;;;;;;;;;;5.54;67.37;97737.25;4342403;33;32754;-88
2023/12/22 15:45:41;;;;;;;;;;;;;;;5.33;67.72;97733.47;4338717;33;33841;-87
2023/12/22 15:48:14;;;;;;;;;;;;;;;5.30;67.88;97745.56;4346475;32;34693;-88
2023/12/22 15:50:44;;;;;;;;;;;;;;;5.23;68.15;97736.31;4352453;32;34309;-87
2023/12/22 15:53:14;;;;;;;;;;;;;;;5.44;67.82;97722.09;4367943;32;33604;-87
2023/12/22 15:55:42;;;;;;;;;;;;;;;5.30;68.28;97719.84;4340389;32;33605;-87